Time;durP1;ratioP1;P1;durP2;ratioP2;P2;SDS_P1;SDS_P2;PMS_P1;PMS_P2;Temp;Humidity;BMP_temperature;BMP_pressure;BME280_temperature;BME280_humidity;BME280_pressure;Samples;Min_cycle;Max_cycle;Signal;HPM_P1;HPM_P2
2023/09/04 00:02:19;;;;;;;873.27;811.23;;;12.60;99.90;;;;;;5072590;28;20567;-59
2023/09/04 00:04:47;;;;;;;878.83;817.07;;;12.50;99.90;;;;;;5073052;28;20454;-59
2023/09/04 00:07:14;;;;;;;873.83;811.50;;;12.50;99.90;;;;;;5074348;28;20464;-59
2023/09/04 00:09:41;;;;;;;867.03;805.50;;;12.40;99.90;;;;;;5074390;28;20453;-59
2023/09/04 00:12:08;;;;;;;884.40;820.60;;;12.30;99.90;;;;;;5072542;28;20532;-59
2023/09/04 00:14:35;;;;;;;891.20;824.70;;;12.30;99.90;;;;;;5073351;28;20450;-59
2023/09/04 00:17:02;;;;;;;898.13;833.53;;;12.20;99.90;;;;;;5074675;28;20526;-59
2023/09/04 00:19:28;;;;;;;886.50;821.13;;;12.30;99.90;;;;;;5073907;28;20495;-59
2023/09/04 00:21:57;;;;;;;888.53;824.03;;;12.30;99.90;;;;;;5071634;28;20558;-59
2023/09/04 00:24:24;;;;;;;895.47;831.60;;;12.20;99.90;;;;;;5073120;28;20535;-59
2023/09/04 00:26:51;;;;;;;886.77;822.13;;;12.20;99.90;;;;;;5073413;28;20446;-59
2023/09/04 00:29:17;;;;;;;899.17;832.67;;;12.20;99.90;;;;;;5074261;28;20934;-59
2023/09/04 00:31:44;;;;;;;910.67;842.40;;;12.10;99.90;;;;;;5072326;28;20451;-59
2023/09/04 00:34:11;;;;;;;903.33;835.23;;;12.10;99.90;;;;;;5072654;28;20545;-59
2023/09/04 00:36:38;;;;;;;905.63;839.23;;;12.10;99.90;;;;;;5073268;28;20449;-59
2023/09/04 00:39:06;;;;;;;917.00;850.00;;;12.10;99.90;;;;;;5074132;28;20534;-59
2023/09/04 00:41:33;;;;;;;912.67;845.87;;;12.00;99.90;;;;;;5072850;28;20545;-59
2023/09/04 00:44:00;;;;;;;907.73;841.33;;;12.00;99.90;;;;;;5072247;28;20892;-59
2023/09/04 00:46:27;;;;;;;905.67;839.27;;;11.90;99.90;;;;;;5073075;28;20806;-59
2023/09/04 00:48:55;;;;;;;909.93;844.43;;;11.90;99.90;;;;;;5074005;28;20447;-59
2023/09/04 00:51:22;;;;;;;901.80;835.73;;;11.90;99.90;;;;;;5072261;28;20621;-59
2023/09/04 00:53:50;;;;;;;909.60;841.13;;;11.80;99.90;;;;;;5072094;28;21089;-59
2023/09/04 00:56:18;;;;;;;908.10;839.70;;;11.90;99.90;;;;;;5072684;28;20868;-59
2023/09/04 00:58:45;;;;;;;919.33;847.13;;;11.90;99.90;;;;;;5073859;28;20450;-59
2023/09/04 01:01:12;;;;;;;908.70;837.43;;;11.90;99.90;;;;;;5072022;28;20903;-59
2023/09/04 01:03:39;;;;;;;913.37;842.10;;;11.90;99.90;;;;;;5072166;28;20577;-59
2023/09/04 01:06:06;;;;;;;924.03;852.23;;;11.80;99.90;;;;;;5072460;28;20520;-59
2023/09/04 01:08:33;;;;;;;925.50;854.43;;;11.80;99.90;;;;;;5073782;28;20890;-59
2023/09/04 01:11:09;;;;;;;933.67;861.13;;;11.80;99.90;;;;;;5072742;28;20534;-59
2023/09/04 01:13:45;;;;;;;929.70;857.17;;;11.80;99.90;;;;;;5071942;28;20529;-59
2023/09/04 01:16:12;;;;;;;929.20;857.53;;;11.80;99.90;;;;;;5072388;28;20470;-59
2023/09/04 01:18:40;;;;;;;941.97;868.40;;;11.80;99.90;;;;;;5073379;28;20458;-59
2023/09/04 01:21:08;;;;;;;943.47;869.07;;;11.90;99.90;;;;;;5072147;28;21021;-59
2023/09/04 01:23:35;;;;;;;942.43;866.20;;;11.90;99.90;;;;;;5071900;28;20485;-59
2023/09/04 01:26:09;;;;;;;937.77;861.33;;;12.00;99.90;;;;;;5072612;28;20854;-59
2023/09/04 01:28:44;;;;;;;937.93;862.43;;;12.20;99.90;;;;;;5073596;28;20513;-59
2023/09/04 01:31:19;;;;;;;934.47;859.97;;;12.20;99.90;;;;;;5072378;28;20895;-59
2023/09/04 01:33:50;;;;;;;951.63;875.30;;;12.10;99.90;;;;;;5072567;28;20497;-59
2023/09/04 01:36:20;;;;;;;947.53;872.13;;;12.10;99.90;;;;;;5076387;28;20456;-59
2023/09/04 01:38:48;;;;;;;958.27;881.57;;;12.00;99.90;;;;;;5077212;28;20938;-59
2023/09/04 01:41:15;;;;;;;961.23;885.07;;;12.00;99.90;;;;;;5075336;28;20487;-58
2023/09/04 01:43:41;;;;;;;964.60;887.00;;;12.00;99.90;;;;;;5075315;28;20478;-58
2023/09/04 01:46:08;;;;;;;958.87;881.27;;;11.90;99.90;;;;;;5075873;28;20533;-58
2023/09/04 01:48:36;;;;;;;967.73;890.33;;;11.90;99.90;;;;;;5077344;28;20855;-58
2023/09/04 01:51:03;;;;;;;955.03;877.63;;;11.80;99.90;;;;;;5076138;28;20457;-59
2023/09/04 01:53:32;;;;;;;956.93;879.73;;;11.80;99.90;;;;;;5075083;28;20489;-58
2023/09/04 01:55:59;;;;;;;951.27;874.43;;;11.80;99.90;;;;;;5066860;28;20489;-58
2023/09/04 01:58:27;;;;;;;958.17;881.40;;;11.80;99.90;;;;;;5076806;28;20457;-58
2023/09/04 02:00:53;;;;;;;966.70;888.70;;;11.80;99.90;;;;;;5075802;28;20523;-58
2023/09/04 02:03:20;;;;;;;977.80;895.80;;;11.80;99.90;;;;;;5074885;28;20553;-58
2023/09/04 02:05:47;;;;;;;976.37;893.40;;;11.80;99.90;;;;;;5075664;28;20450;-58
2023/09/04 02:08:14;;;;;;;980.93;897.63;;;11.80;99.90;;;;;;5076632;28;21014;-58
2023/09/04 02:10:43;;;;;;;981.50;898.70;;;11.80;99.90;;;;;;5075914;28;20878;-58
2023/09/04 02:13:09;;;;;;;973.33;891.27;;;11.80;99.90;;;;;;5074960;28;20922;-58
2023/09/04 02:15:38;;;;;;;971.17;889.30;;;11.90;99.90;;;;;;5075186;28;20447;-58
2023/09/04 02:18:05;;;;;;;962.83;881.83;;;11.90;99.90;;;;;;5076476;28;20447;-58
2023/09/04 02:20:32;;;;;;;961.40;878.00;;;11.90;99.90;;;;;;5075847;28;20537;-58
2023/09/04 02:22:59;;;;;;;954.87;871.27;;;11.90;99.90;;;;;;5075461;28;20478;-58
2023/09/04 02:25:26;;;;;;;953.33;869.77;;;11.90;99.90;;;;;;5075247;28;20591;-58
2023/09/04 02:27:55;;;;;;;970.80;885.40;;;11.90;99.90;;;;;;5076565;28;20447;-57
2023/09/04 02:30:22;;;;;;;966.93;882.90;;;11.90;99.90;;;;;;5075996;28;20504;-58
2023/09/04 02:32:49;;;;;;;958.30;874.00;;;11.80;99.90;;;;;;5075260;28;20457;-58
2023/09/04 02:35:16;;;;;;;966.57;883.37;;;11.80;99.90;;;;;;5074653;28;20529;-58
2023/09/04 02:37:44;;;;;;;972.30;885.23;;;11.70;99.90;;;;;;5076102;28;20450;-58
2023/09/04 02:40:12;;;;;;;960.43;873.17;;;11.80;99.90;;;;;;5075617;28;20453;-58
2023/09/04 02:42:39;;;;;;;966.63;880.93;;;11.80;99.90;;;;;;5074560;28;20471;-58
2023/09/04 02:45:09;;;;;;;974.10;889.27;;;11.70;99.90;;;;;;5073868;28;20540;-58
2023/09/04 02:47:37;;;;;;;978.63;893.10;;;11.60;99.90;;;;;;5075899;28;20930;-58
2023/09/04 02:50:05;;;;;;;978.07;891.47;;;11.60;99.90;;;;;;5075670;28;20457;-58
2023/09/04 02:52:32;;;;;;;970.80;885.83;;;11.50;99.90;;;;;;5074698;28;20454;-58
2023/09/04 02:54:59;;;;;;;973.93;889.13;;;11.40;99.90;;;;;;5074329;28;20457;-58
2023/09/04 02:57:26;;;;;;;974.60;890.20;;;11.40;99.90;;;;;;5075936;28;20454;-58
2023/09/04 02:59:53;;;;;;;973.53;888.13;;;11.40;99.90;;;;;;5075304;28;20554;-58
2023/09/04 03:02:22;;;;;;;979.30;893.60;;;11.40;99.90;;;;;;5074595;28;20538;-58
2023/09/04 03:04:54;;;;;;;969.30;883.50;;;11.40;99.90;;;;;;5074480;28;20835;-58
2023/09/04 03:07:21;;;;;;;962.03;876.53;;;11.40;99.90;;;;;;5075699;28;20446;-58
2023/09/04 03:09:48;;;;;;;972.60;886.30;;;11.40;99.90;;;;;;5074913;28;20451;-58
2023/09/04 03:12:15;;;;;;;961.57;876.07;;;11.40;99.90;;;;;;5073950;28;20903;-58
2023/09/04 03:14:42;;;;;;;958.13;872.77;;;11.40;99.90;;;;;;5074052;28;20547;-58
2023/09/04 03:17:09;;;;;;;965.57;879.10;;;11.40;99.90;;;;;;5075254;28;20534;-58
2023/09/04 03:19:37;;;;;;;957.40;870.57;;;11.40;99.90;;;;;;5075139;28;20931;-58
2023/09/04 03:22:04;;;;;;;959.30;873.10;;;11.50;99.90;;;;;;5074528;28;20531;-58
2023/09/04 03:24:31;;;;;;;968.53;882.50;;;11.40;99.90;;;;;;5073797;28;20562;-58
2023/09/04 03:26:58;;;;;;;964.53;878.07;;;11.40;99.90;;;;;;5074867;28;20450;-58
2023/09/04 03:29:25;;;;;;;964.07;877.77;;;11.40;99.90;;;;;;5074893;28;20447;-58
2023/09/04 03:31:52;;;;;;;966.83;880.00;;;11.30;99.90;;;;;;5073706;28;20483;-57
2023/09/04 03:34:20;;;;;;;965.27;877.17;;;11.30;99.90;;;;;;5073866;28;20449;-58
2023/09/04 03:36:48;;;;;;;967.23;879.10;;;11.30;99.90;;;;;;5074245;28;20447;-58
2023/09/04 03:39:15;;;;;;;969.60;879.80;;;11.30;99.90;;;;;;5074971;28;20461;-58
2023/09/04 03:41:42;;;;;;;970.27;881.33;;;11.30;99.90;;;;;;5073535;28;20474;-58
2023/09/04 03:44:09;;;;;;;971.60;882.80;;;11.20;99.90;;;;;;5073510;28;20471;-58
2023/09/04 03:46:35;;;;;;;952.77;865.17;;;11.30;99.90;;;;;;5074079;28;20545;-58
2023/09/04 03:49:03;;;;;;;944.80;856.80;;;11.30;99.90;;;;;;5074720;28;20537;-58
2023/09/04 03:51:30;;;;;;;947.47;860.23;;;11.20;99.90;;;;;;5074030;28;20832;-58
2023/09/04 03:54:01;;;;;;;943.30;855.83;;;11.20;99.90;;;;;;5073390;28;20877;-58
2023/09/04 03:56:29;;;;;;;935.97;845.73;;;11.20;99.90;;;;;;5073779;28;20860;-58
2023/09/04 03:58:56;;;;;;;937.97;848.37;;;11.20;99.90;;;;;;5074560;28;21026;-58
2023/09/04 04:01:23;;;;;;;937.80;848.63;;;11.10;99.90;;;;;;5072695;28;20533;-58
2023/09/04 04:03:51;;;;;;;935.73;846.63;;;11.00;99.90;;;;;;5072038;28;20873;-58
2023/09/04 04:06:18;;;;;;;929.57;840.87;;;11.00;99.90;;;;;;5073231;28;20451;-57
2023/09/04 04:08:46;;;;;;;930.23;841.20;;;10.90;99.90;;;;;;5074674;28;20529;-57
2023/09/04 04:11:14;;;;;;;939.00;850.20;;;10.90;99.90;;;;;;5073524;28;20456;-57
2023/09/04 04:13:41;;;;;;;951.17;862.17;;;10.80;99.90;;;;;;5072900;28;20531;-57
2023/09/04 04:16:09;;;;;;;967.03;873.63;;;10.70;99.90;;;;;;5073152;28;20530;-58
2023/09/04 04:18:36;;;;;;;940.50;848.50;;;10.70;99.90;;;;;;5074444;28;20446;-58
2023/09/04 04:21:04;;;;;;;964.23;871.43;;;10.80;99.90;;;;;;5073208;28;20490;-58
2023/09/04 04:23:33;;;;;;;937.13;844.77;;;10.90;99.90;;;;;;5072490;28;20474;-58
2023/09/04 04:26:00;;;;;;;944.30;852.97;;;10.90;99.90;;;;;;5073023;28;20934;-58
2023/09/04 04:28:28;;;;;;;935.30;844.63;;;10.90;99.90;;;;;;5074306;28;20787;-58
2023/09/04 04:30:57;;;;;;;939.60;849.27;;;10.90;99.90;;;;;;5073062;28;20533;-57
2023/09/04 04:33:24;;;;;;;925.60;835.40;;;10.90;99.90;;;;;;5072598;28;20492;-57
2023/09/04 04:35:53;;;;;;;936.77;847.50;;;10.80;99.90;;;;;;5072523;28;20504;-58
2023/09/04 04:38:20;;;;;;;940.23;848.47;;;10.80;99.90;;;;;;5074662;28;20454;-58
2023/09/04 04:40:47;;;;;;;932.83;840.93;;;10.70;99.90;;;;;;5072613;28;20542;-59
2023/09/04 04:43:14;;;;;;;932.30;839.03;;;10.80;99.90;;;;;;5071546;28;20447;-58
2023/09/04 04:45:43;;;;;;;945.77;850.67;;;10.80;99.90;;;;;;5072158;28;20824;-58
2023/09/04 04:48:10;;;;;;;938.90;842.07;;;10.80;99.90;;;;;;5074831;28;20793;-58
2023/09/04 04:50:37;;;;;;;946.33;850.67;;;10.80;99.90;;;;;;5072707;28;20538;-57
2023/09/04 04:53:04;;;;;;;938.20;842.70;;;10.80;99.90;;;;;;5072582;28;20453;-58
2023/09/04 04:55:31;;;;;;;941.30;845.20;;;10.80;99.90;;;;;;5071750;28;20455;-58
2023/09/04 04:57:58;;;;;;;948.37;853.53;;;10.90;99.90;;;;;;5073860;28;20821;-58
2023/09/04 05:00:25;;;;;;;942.97;848.47;;;10.90;99.90;;;;;;5073082;28;20543;-58
2023/09/04 05:02:53;;;;;;;941.93;846.33;;;10.80;99.90;;;;;;5072217;28;20878;-58
2023/09/04 05:05:20;;;;;;;939.17;844.33;;;10.80;99.90;;;;;;5070965;28;20471;-58
2023/09/04 05:07:47;;;;;;;945.37;848.57;;;10.80;99.90;;;;;;5073583;28;20813;-58
2023/09/04 05:10:14;;;;;;;954.67;856.67;;;10.80;99.90;;;;;;5072648;28;20938;-58
2023/09/04 05:12:41;;;;;;;938.27;840.20;;;10.90;99.90;;;;;;5072619;28;20541;-58
2023/09/04 05:15:08;;;;;;;938.20;841.70;;;11.00;99.90;;;;;;5071906;28;20478;-57
2023/09/04 05:17:35;;;;;;;928.40;833.43;;;11.00;99.90;;;;;;5073680;28;20447;-58
2023/09/04 05:20:05;;;;;;;931.90;835.10;;;11.10;99.90;;;;;;5073101;28;20533;-58
2023/09/04 05:22:32;;;;;;;943.17;845.03;;;11.20;99.90;;;;;;5071636;28;20470;-57
2023/09/04 05:24:59;;;;;;;930.57;832.80;;;11.30;99.90;;;;;;5071169;28;20446;-58
2023/09/04 05:27:26;;;;;;;933.93;836.20;;;11.50;99.90;;;;;;5073306;28;20821;-58
2023/09/04 05:29:54;;;;;;;934.70;835.90;;;11.60;99.90;;;;;;5073270;28;20450;-58
2023/09/04 05:32:21;;;;;;;929.67;833.47;;;11.80;99.90;;;;;;5072016;28;20809;-58
2023/09/04 05:34:53;;;;;;;933.90;836.23;;;11.90;99.90;;;;;;5072197;28;20478;-58
2023/09/04 05:37:22;;;;;;;953.53;854.60;;;12.00;99.90;;;;;;5073011;28;20441;-58
2023/09/04 05:39:49;;;;;;;931.23;834.27;;;12.20;99.90;;;;;;5073241;28;20534;-58
2023/09/04 05:42:16;;;;;;;939.77;840.30;;;12.30;99.90;;;;;;5070806;28;20447;-59
2023/09/04 05:44:43;;;;;;;940.47;841.50;;;12.40;99.90;;;;;;5071032;28;20453;-58
2023/09/04 05:47:09;;;;;;;961.83;861.23;;;12.40;99.90;;;;;;5072676;28;20450;-58
2023/09/04 05:49:37;;;;;;;953.77;853.77;;;12.50;99.90;;;;;;5072951;28;20533;-58
2023/09/04 05:52:04;;;;;;;939.80;839.33;;;12.60;99.90;;;;;;5070981;28;20454;-58
2023/09/04 05:54:32;;;;;;;944.83;843.33;;;12.70;99.90;;;;;;5070887;28;20536;-58
2023/09/04 05:56:59;;;;;;;942.97;842.07;;;12.80;99.90;;;;;;5071663;28;20469;-58
2023/09/04 05:59:26;;;;;;;954.33;854.70;;;12.90;99.90;;;;;;5073104;28;20880;-58
2023/09/04 06:01:53;;;;;;;959.73;860.23;;;13.00;99.90;;;;;;5071676;28;20511;-58
2023/09/04 06:04:20;;;;;;;955.97;857.77;;;13.10;99.90;;;;;;5071064;28;20451;-58
2023/09/04 06:06:47;;;;;;;960.10;862.40;;;13.30;99.90;;;;;;5071789;28;20503;-58
2023/09/04 06:09:14;;;;;;;950.43;853.40;;;13.40;99.90;;;;;;5072867;28;20446;-58
2023/09/04 06:11:42;;;;;;;948.10;852.27;;;13.50;99.90;;;;;;5070537;28;20453;-58
2023/09/04 06:14:10;;;;;;;957.00;862.53;;;13.60;99.90;;;;;;5070559;28;20557;-58
2023/09/04 06:16:37;;;;;;;947.73;853.57;;;13.60;99.90;;;;;;5072258;28;20450;-57
2023/09/04 06:19:04;;;;;;;958.33;863.17;;;13.70;99.90;;;;;;5073128;28;20908;-58
2023/09/04 06:21:31;;;;;;;966.90;871.50;;;13.80;99.90;;;;;;5073489;28;20550;-58
2023/09/04 06:23:58;;;;;;;968.37;873.87;;;13.90;99.90;;;;;;5074003;28;20809;-58
2023/09/04 06:26:25;;;;;;;953.37;861.37;;;14.00;99.90;;;;;;5074594;28;20458;-58
2023/09/04 06:28:53;;;;;;;947.70;856.63;;;14.00;99.90;;;;;;5076633;28;20451;-58
2023/09/04 06:31:20;;;;;;;954.27;864.63;;;14.10;99.90;;;;;;5074786;28;20461;-58
2023/09/04 06:33:47;;;;;;;950.27;861.87;;;14.20;99.90;;;;;;5074234;28;20581;-58
2023/09/04 06:36:14;;;;;;;944.50;857.93;;;14.30;99.90;;;;;;5075057;28;20538;-58
2023/09/04 06:38:41;;;;;;;939.80;855.43;;;14.40;99.90;;;;;;5076117;28;20538;-58
2023/09/04 06:41:08;;;;;;;938.77;857.20;;;14.50;99.90;;;;;;5074716;28;20945;-58
2023/09/04 06:43:35;;;;;;;934.87;857.07;;;14.60;99.90;;;;;;5064058;28;20452;-59
2023/09/04 06:46:03;;;;;;;915.03;840.77;;;14.70;99.90;;;;;;5066184;28;20453;-60
2023/09/04 06:48:30;;;;;;;883.33;815.33;;;14.80;99.90;;;;;;5076269;28;20512;-59
2023/09/04 06:50:57;;;;;;;851.00;790.20;;;14.90;99.90;;;;;;5075389;28;20489;-60
2023/09/04 06:53:24;;;;;;;841.27;782.77;;;15.00;99.90;;;;;;5074429;28;20454;-60
2023/09/04 06:55:52;;;;;;;812.50;758.93;;;15.00;99.90;;;;;;5072907;28;20471;-59
2023/09/04 06:58:19;;;;;;;781.87;733.10;;;15.10;99.90;;;;;;5075765;28;20450;-60
2023/09/04 07:00:46;;;;;;;725.07;681.47;;;15.30;99.90;;;;;;5073970;28;20487;-60
2023/09/04 07:03:14;;;;;;;695.27;655.87;;;15.40;99.90;;;;;;5073424;28;20969;-60
2023/09/04 07:05:41;;;;;;;704.57;664.27;;;15.50;99.90;;;;;;5073928;28;20454;-60
2023/09/04 07:08:08;;;;;;;639.47;606.70;;;15.60;99.90;;;;;;5075893;28;20447;-61
2023/09/04 07:10:35;;;;;;;642.93;610.50;;;15.70;99.90;;;;;;5074483;28;20446;-60
2023/09/04 07:13:03;;;;;;;652.33;619.63;;;15.70;99.90;;;;;;5072579;28;20473;-61
2023/09/04 07:15:29;;;;;;;625.00;595.10;;;15.80;99.90;;;;;;5071702;28;20592;-61
2023/09/04 07:18:00;;;;;;;592.57;565.53;;;15.90;99.90;;;;;;5075743;28;20451;-62
2023/09/04 07:20:28;;;;;;;484.50;465.20;;;16.00;99.90;;;;;;5073414;28;20462;-64
2023/09/04 07:22:55;;;;;;;474.92;455.98;;;16.10;99.90;;;;;;5070785;28;20556;-61
2023/09/04 07:25:22;;;;;;;399.63;385.05;;;16.20;99.90;;;;;;5070586;28;20942;-61
2023/09/04 07:27:49;;;;;;;369.67;356.27;;;16.40;99.90;;;;;;5075062;28;20197;-62
2023/09/04 07:30:16;;;;;;;412.27;398.00;;;16.50;99.90;;;;;;5074922;28;20541;-62
2023/09/04 07:32:43;;;;;;;450.20;433.93;;;16.60;99.90;;;;;;5072597;28;20545;-62
2023/09/04 07:35:11;;;;;;;404.87;391.03;;;16.70;99.90;;;;;;5068644;28;20486;-61
2023/09/04 07:37:39;;;;;;;255.43;247.20;;;16.80;99.90;;;;;;5055134;28;20539;-62
2023/09/04 07:40:08;;;;;;;179.77;173.60;;;16.90;99.90;;;;;;5060431;28;20537;-62
2023/09/04 07:42:36;;;;;;;106.70;102.83;;;17.00;99.90;;;;;;5073311;28;20454;-64
2023/09/04 07:45:03;;;;;;;67.73;64.90;;;17.00;99.90;;;;;;5072993;28;20486;-65
2023/09/04 07:47:30;;;;;;;64.07;61.50;;;17.10;99.90;;;;;;5074567;28;20453;-65
2023/09/04 07:49:57;;;;;;;99.03;95.43;;;17.20;99.90;;;;;;5074577;28;20450;-65
2023/09/04 07:52:24;;;;;;;69.27;66.33;;;17.30;99.90;;;;;;5073741;28;20529;-62
2023/09/04 07:54:52;;;;;;;17.73;16.17;;;17.50;99.90;;;;;;5070295;28;20479;-65
2023/09/04 07:57:19;;;;;;;24.90;23.60;;;17.60;99.90;;;;;;5059703;28;20457;-65
2023/09/04 07:59:46;;;;;;;10.53;9.00;;;17.80;99.90;;;;;;5072427;28;20464;-64
2023/09/04 08:02:13;;;;;;;9.00;5.33;;;18.10;99.90;;;;;;5072777;28;20447;-65
2023/09/04 08:04:40;;;;;;;6.90;4.80;;;18.40;99.90;;;;;;5073087;28;20480;-65
2023/09/04 08:07:06;;;;;;;7.47;3.90;;;18.70;99.90;;;;;;5074267;28;20450;-60
2023/09/04 08:09:33;;;;;;;8.60;3.90;;;19.00;99.90;;;;;;5074403;28;20530;-60
2023/09/04 08:12:02;;;;;;;10.53;4.10;;;19.30;99.90;;;;;;5073451;28;20504;-60
2023/09/04 08:14:33;;;;;;;11.70;4.57;;;19.60;99.90;;;;;;5072861;28;20482;-60
2023/09/04 08:17:01;;;;;;;9.60;4.43;;;19.80;99.90;;;;;;5074028;28;20545;-60
2023/09/04 08:19:28;;;;;;;6.33;3.30;;;20.10;99.90;;;;;;5074387;28;20447;-60
2023/09/04 08:21:57;;;;;;;7.00;3.77;;;20.50;99.90;;;;;;5072672;28;20455;-60
2023/09/04 08:24:24;;;;;;;7.50;3.90;;;20.80;99.90;;;;;;5072200;28;20529;-62
2023/09/04 08:26:51;;;;;;;11.80;3.30;;;20.90;99.90;;;;;;5073422;28;20451;-62
2023/09/04 08:29:19;;;;;;;8.53;3.50;;;21.20;99.90;;;;;;5074398;28;20478;-60
2023/09/04 08:31:46;;;;;;;7.27;2.97;;;21.50;99.90;;;;;;5072665;28;20539;-60
2023/09/04 08:34:13;;;;;;;5.90;2.90;;;21.80;95.90;;;;;;5072441;28;20497;-62
2023/09/04 08:36:40;;;;;;;6.63;3.23;;;22.20;96.00;;;;;;5073651;28;20590;-62
2023/09/04 08:39:06;;;;;;;6.40;3.33;;;22.40;92.40;;;;;;5074177;28;20541;-62
2023/09/04 08:41:35;;;;;;;7.70;3.17;;;22.50;88.30;;;;;;5072592;28;20447;-62
2023/09/04 08:44:04;;;;;;;7.50;3.10;;;22.80;89.40;;;;;;5071684;28;20457;-62
2023/09/04 08:46:33;;;;;;;6.67;3.50;;;22.80;88.60;;;;;;5073552;28;20453;-62
2023/09/04 08:49:02;;;;;;;7.15;3.38;;;22.90;80.90;;;;;;5073480;28;20449;-61
2023/09/04 08:51:31;;;;;;;6.90;3.13;;;22.80;80.70;;;;;;5072860;28;20571;-65
2023/09/04 08:53:58;;;;;;;8.20;3.50;;;23.10;81.00;;;;;;5071914;28;20450;-65
2023/09/04 08:56:26;;;;;;;8.77;4.10;;;23.30;73.10;;;;;;5072447;28;20541;-65
2023/09/04 08:58:53;;;;;;;34.13;8.35;;;23.70;73.50;;;;;;5073453;28;20528;-65
2023/09/04 09:01:21;;;;;;;14.30;4.30;;;24.00;73.70;;;;;;5072793;28;20204;-65
2023/09/04 09:03:51;;;;;;;10.93;4.10;;;24.10;59.40;;;;;;5072949;28;20789;-64
2023/09/04 09:06:18;;;;;;;19.57;4.93;;;24.40;57.30;;;;;;5073193;28;20447;-64
2023/09/04 09:08:46;;;;;;;8.13;3.80;;;24.50;51.90;;;;;;5072272;28;20605;-64
2023/09/04 09:11:15;;;;;;;9.10;3.77;;;24.70;55.40;;;;;;5072485;28;20446;-60
2023/09/04 09:13:44;;;;;;;6.00;2.80;;;24.70;48.80;;;;;;5071721;28;20451;-60
2023/09/04 09:16:11;;;;;;;6.07;2.87;;;24.90;47.60;;;;;;5072441;28;20500;-60
2023/09/04 09:18:40;;;;;;;6.27;3.33;;;24.90;46.50;;;;;;5073663;28;20474;-60
2023/09/04 09:21:29;;;;;;;6.60;3.23;;;24.90;39.90;;;;;;5072545;28;20454;-60
2023/09/04 09:24:10;;;;;;;7.23;3.23;;;25.10;40.00;;;;;;5071848;28;20458;-60
2023/09/04 09:26:39;;;;;;;83.30;13.73;;;25.20;40.10;;;;;;5072564;28;20457;-61
2023/09/04 09:29:08;;;;;;;76.47;13.13;;;25.50;40.30;;;;;;5073574;28;20453;-61
2023/09/04 09:31:36;;;;;;;11.30;3.50;;;25.60;40.30;;;;;;5072242;28;20553;-60
2023/09/04 09:34:04;;;;;;;18.57;4.50;;;25.80;33.70;;;;;;5071951;28;20847;-60
2023/09/04 09:36:34;;;;;;;9.23;3.70;;;26.10;39.30;;;;;;5072617;28;20511;-60
2023/09/04 09:39:00;;;;;;;8.77;3.23;;;26.20;31.50;;;;;;5073144;28;20457;-60
2023/09/04 09:41:30;;;;;;;8.20;3.30;;;26.20;31.40;;;;;;5071908;28;20535;-61
2023/09/04 09:43:57;;;;;;;6.70;3.53;;;26.40;29.00;;;;;;5071770;28;20456;-61
2023/09/04 09:46:24;;;;;;;6.30;3.23;;;26.80;27.40;;;;;;5072608;28;20784;-61
2023/09/04 09:48:52;;;;;;;6.53;3.50;;;26.90;24.30;;;;;;5073378;28;20446;-60
2023/09/04 09:51:18;;;;;;;8.47;3.50;;;26.60;24.20;;;;;;5072006;28;20445;-60
2023/09/04 09:53:48;;;;;;;8.37;3.67;;;26.70;24.30;;;;;;5071710;28;20460;-60
2023/09/04 09:56:17;;;;;;;6.50;3.10;;;27.30;24.60;;;;;;5075652;28;20449;-60
2023/09/04 09:58:46;;;;;;;6.60;3.00;;;27.40;20.70;;;;;;5076860;28;20504;-60
2023/09/04 10:01:14;;;;;;;7.90;3.97;;;27.20;17.00;;;;;;5075876;28;20457;-60
2023/09/04 10:03:43;;;;;;;7.37;3.23;;;27.40;17.10;;;;;;5075389;28;20537;-60
2023/09/04 10:06:12;;;;;;;6.20;3.00;;;27.50;17.20;;;;;;5075820;28;20474;-61
2023/09/04 10:08:40;;;;;;;88.87;11.93;;;27.90;17.40;;;;;;5076930;28;20485;-61
2023/09/04 10:11:12;;;;;;;9.35;3.38;;;27.90;17.40;;;;;;5075265;28;20450;-60
2023/09/04 10:13:53;;;;;;;9.60;3.72;;;28.00;11.50;;;;;;5074666;28;20446;-60
2023/09/04 10:16:28;;;;;;;9.00;3.40;;;28.20;9.90;;;;;;5075641;28;20192;-60
2023/09/04 10:18:59;;;;;;;7.10;3.13;;;28.20;9.90;;;;;;5076779;28;20444;-60
2023/09/04 10:21:29;;;;;;;6.27;3.27;;;28.50;10.00;;;;;;5075208;28;20434;-60
2023/09/04 10:24:02;;;;;;;6.63;3.20;;;28.60;4.40;;;;;;5075208;28;20446;-60
2023/09/04 10:26:36;;;;;;;6.40;3.00;;;28.30;3.70;;;;;;5075905;28;20541;-60
2023/09/04 10:29:05;;;;;;;6.53;3.20;;;27.80;9.70;;;;;;5076588;28;20441;-60
2023/09/04 10:31:35;;;;;;;6.17;2.80;;;27.70;9.60;;;;;;5075546;28;20901;-60
2023/09/04 10:34:03;;;;;;;6.30;2.70;;;28.60;5.00;;;;;;5074786;28;20822;-60
2023/09/04 10:36:31;;;;;;;6.00;3.30;;;28.50;2.20;;;;;;5075391;28;20450;-60
2023/09/04 10:38:58;;;;;;;7.73;2.90;;;28.90;2.40;;;;;;5076108;28;20952;-60
2023/09/04 10:41:26;;;;;;;5.40;2.47;;;29.20;2.60;;;;;;5075442;28;20450;-60
2023/09/04 10:43:55;;;;;;;5.23;2.43;;;29.10;1.00;;;;;;5075220;28;20450;-61
2023/09/04 10:46:23;;;;;;;7.40;3.07;;;29.40;1.00;;;;;;5075339;28;20483;-62
2023/09/04 10:48:51;;;;;;;6.17;2.53;;;28.90;1.00;;;;;;5076108;28;20446;-62
2023/09/04 10:51:34;;;;;;;6.50;2.57;;;28.20;1.00;;;;;;5074865;28;20455;-62
2023/09/04 10:54:03;;;;;;;6.70;3.10;;;28.80;1.00;;;;;;5074346;28;20446;-62
2023/09/04 10:56:52;;;;;;;6.70;2.63;;;29.00;1.00;;;;;;5074937;28;20428;-61
2023/09/04 10:59:21;;;;;;;5.93;2.40;;;29.50;1.00;;;;;;5075686;28;20466;-61
2023/09/04 11:01:47;;;;;;;6.40;2.67;;;29.70;1.00;;;;;;5074898;28;20496;-63
2023/09/04 11:04:30;;;;;;;5.77;2.73;;;30.20;1.00;;;;;;5074370;28;20479;-63
2023/09/04 11:07:25;;;;;;;5.53;2.60;;;29.80;1.00;;;;;;5074094;28;20470;-63
2023/09/04 11:09:54;;;;;;;7.00;2.80;;;29.90;1.00;;;;;;5069103;28;20447;-63
2023/09/04 11:12:22;;;;;;;7.20;2.40;;;30.20;1.00;;;;;;5074574;28;20545;-62
2023/09/04 11:14:54;;;;;;;6.70;3.23;;;30.20;1.00;;;;;;5075053;28;20447;-63
2023/09/04 11:17:23;;;;;;;5.88;2.83;;;29.80;1.00;;;;;;5074334;28;20449;-63
2023/09/04 11:19:51;;;;;;;5.30;2.37;;;30.80;1.00;;;;;;5075401;28;20200;-63
2023/09/04 11:22:21;;;;;;;5.23;2.57;;;30.90;1.00;;;;;;5074580;28;20537;-63
2023/09/04 11:24:49;;;;;;;5.10;2.53;;;30.90;1.00;;;;;;5074378;28;20800;-63
2023/09/04 11:27:16;;;;;;;6.07;2.70;;;31.20;1.00;;;;;;5075146;28;21063;-63
2023/09/04 11:29:43;;;;;;;4.90;2.40;;;30.90;1.00;;;;;;5074874;28;20973;-63
2023/09/04 11:32:12;;;;;;;5.50;2.70;;;31.40;1.00;;;;;;5074760;28;20538;-63
2023/09/04 11:34:39;;;;;;;5.33;2.83;;;31.50;1.00;;;;;;5074460;28;20455;-63
2023/09/04 11:37:06;;;;;;;7.47;2.97;;;31.60;1.00;;;;;;5075647;28;20613;-63
2023/09/04 11:39:32;;;;;;;5.33;2.43;;;31.90;1.00;;;;;;5075260;28;20447;-62
2023/09/04 11:42:01;;;;;;;5.63;2.50;;;31.60;1.00;;;;;;5074399;28;20446;-63
2023/09/04 11:44:31;;;;;;;6.77;2.70;;;31.30;1.00;;;;;;5074209;28;20429;-64
2023/09/04 11:47:02;;;;;;;5.10;2.53;;;32.10;1.00;;;;;;5074656;28;20561;-62
2023/09/04 11:49:31;;;;;;;5.67;2.73;;;32.20;1.00;;;;;;5075833;28;20479;-62
2023/09/04 11:51:58;;;;;;;6.10;2.90;;;32.60;1.00;;;;;;5074154;28;20425;-62
2023/09/04 11:54:31;;;;;;;5.23;2.67;;;32.70;1.00;;;;;;5074068;28;20533;-62
2023/09/04 11:57:03;;;;;;;11.30;5.10;;;33.00;1.00;;;;;;5074831;28;20809;-62
2023/09/04 11:59:33;;;;;;;4.70;2.10;;;32.70;1.00;;;;;;5074433;28;20966;-62
2023/09/04 12:02:00;;;;;;;6.30;3.17;;;32.70;1.00;;;;;;5073964;28;20447;-62
2023/09/04 12:04:27;;;;;;;5.40;2.57;;;32.70;1.00;;;;;;5073858;28;20826;-62
2023/09/04 12:06:55;;;;;;;5.77;2.67;;;32.00;1.00;;;;;;5074612;28;20474;-63
2023/09/04 12:09:23;;;;;;;5.90;2.70;;;32.30;1.00;;;;;;5074395;28;20976;-62
2023/09/04 12:11:50;;;;;;;6.60;2.67;;;32.80;1.00;;;;;;5073497;28;20942;-63
2023/09/04 12:14:17;;;;;;;5.33;2.20;;;33.00;1.00;;;;;;5073605;28;20454;-62
2023/09/04 12:16:44;;;;;;;5.70;2.60;;;32.70;1.00;;;;;;5074051;28;20941;-62
2023/09/04 12:19:12;;;;;;;4.93;2.47;;;33.00;1.00;;;;;;5073603;28;20443;-62
2023/09/04 12:21:39;;;;;;;7.90;2.60;;;32.70;1.00;;;;;;5073618;28;20455;-62
2023/09/04 12:24:14;;;;;;;6.60;3.20;;;33.00;1.00;;;;;;5073448;28;20453;-63
2023/09/04 12:26:41;;;;;;;5.77;2.30;;;32.70;1.00;;;;;;5074130;28;20545;-63
2023/09/04 12:29:09;;;;;;;8.57;3.03;;;32.90;1.00;;;;;;5074022;28;20451;-63